sensor_id;sensor_type;location;lat;lon;timestamp;P1;durP1;ratioP1;P2;durP2;ratioP2
12348;SDS011;5974;42.710;27.258;2022-08-18T00:00:25;8.30;;;6.53;;
12348;SDS011;5974;42.710;27.258;2022-08-18T00:02:51;10.27;;;6.57;;
12348;SDS011;5974;42.710;27.258;2022-08-18T00:05:20;7.07;;;6.37;;
12348;SDS011;5974;42.710;27.258;2022-08-18T00:07:46;6.83;;;6.27;;
12348;SDS011;5974;42.710;27.258;2022-08-18T00:10:13;7.17;;;6.57;;
12348;SDS011;5974;42.710;27.258;2022-08-18T00:12:40;7.37;;;6.67;;
12348;SDS011;5974;42.710;27.258;2022-08-18T00:15:09;6.53;;;5.93;;
12348;SDS011;5974;42.710;27.258;2022-08-18T00:17:36;6.77;;;6.17;;
12348;SDS011;5974;42.710;27.258;2022-08-18T00:20:04;6.97;;;6.43;;
12348;SDS011;5974;42.710;27.258;2022-08-18T00:22:32;6.80;;;5.90;;
12348;SDS011;5974;42.710;27.258;2022-08-18T00:24:58;7.00;;;6.17;;
12348;SDS011;5974;42.710;27.258;2022-08-18T00:27:27;13.80;;;6.60;;
12348;SDS011;5974;42.710;27.258;2022-08-18T00:29:55;6.87;;;6.23;;
12348;SDS011;5974;42.710;27.258;2022-08-18T00:32:22;10.43;;;6.73;;
12348;SDS011;5974;42.710;27.258;2022-08-18T00:34:49;9.50;;;5.87;;
12348;SDS011;5974;42.710;27.258;2022-08-18T00:37:16;6.40;;;5.80;;
12348;SDS011;5974;42.710;27.258;2022-08-18T00:39:44;7.73;;;6.23;;
12348;SDS011;5974;42.710;27.258;2022-08-18T00:42:11;6.73;;;5.90;;
12348;SDS011;5974;42.710;27.258;2022-08-18T00:44:38;6.87;;;6.00;;
12348;SDS011;5974;42.710;27.258;2022-08-18T00:47:05;8.67;;;5.90;;
12348;SDS011;5974;42.710;27.258;2022-08-18T00:49:32;7.33;;;6.40;;
12348;SDS011;5974;42.710;27.258;2022-08-18T00:51:58;10.73;;;6.23;;
12348;SDS011;5974;42.710;27.258;2022-08-18T00:54:27;6.23;;;5.53;;
12348;SDS011;5974;42.710;27.258;2022-08-18T00:56:56;6.00;;;5.50;;
12348;SDS011;5974;42.710;27.258;2022-08-18T00:59:25;5.97;;;5.33;;
12348;SDS011;5974;42.710;27.258;2022-08-18T01:01:53;7.67;;;5.10;;
12348;SDS011;5974;42.710;27.258;2022-08-18T01:04:27;7.53;;;5.77;;
12348;SDS011;5974;42.710;27.258;2022-08-18T01:06:57;5.83;;;4.73;;
12348;SDS011;5974;42.710;27.258;2022-08-18T01:09:25;5.47;;;5.00;;
12348;SDS011;5974;42.710;27.258;2022-08-18T01:11:52;5.87;;;5.40;;
12348;SDS011;5974;42.710;27.258;2022-08-18T01:14:21;5.50;;;5.10;;
12348;SDS011;5974;42.710;27.258;2022-08-18T01:16:48;6.17;;;5.20;;
12348;SDS011;5974;42.710;27.258;2022-08-18T01:19:47;5.17;;;4.53;;
12348;SDS011;5974;42.710;27.258;2022-08-18T01:22:32;5.83;;;5.23;;
12348;SDS011;5974;42.710;27.258;2022-08-18T01:25:03;6.03;;;5.53;;
12348;SDS011;5974;42.710;27.258;2022-08-18T01:27:49;5.90;;;5.30;;
12348;SDS011;5974;42.710;27.258;2022-08-18T01:30:16;5.47;;;4.97;;
12348;SDS011;5974;42.710;27.258;2022-08-18T01:32:46;5.33;;;4.97;;
12348;SDS011;5974;42.710;27.258;2022-08-18T01:35:13;5.90;;;5.40;;
12348;SDS011;5974;42.710;27.258;2022-08-18T01:37:40;8.63;;;4.93;;
12348;SDS011;5974;42.710;27.258;2022-08-18T01:40:10;5.27;;;4.87;;
12348;SDS011;5974;42.710;27.258;2022-08-18T01:42:37;6.03;;;5.10;;
12348;SDS011;5974;42.710;27.258;2022-08-18T01:45:05;5.47;;;4.97;;
12348;SDS011;5974;42.710;27.258;2022-08-18T01:47:33;5.60;;;5.10;;
12348;SDS011;5974;42.710;27.258;2022-08-18T01:50:00;6.03;;;5.33;;
12348;SDS011;5974;42.710;27.258;2022-08-18T01:52:26;6.53;;;5.17;;
12348;SDS011;5974;42.710;27.258;2022-08-18T01:54:54;4.93;;;4.43;;
12348;SDS011;5974;42.710;27.258;2022-08-18T01:57:23;6.10;;;5.10;;
12348;SDS011;5974;42.710;27.258;2022-08-18T01:59:49;5.83;;;5.33;;
12348;SDS011;5974;42.710;27.258;2022-08-18T02:02:17;5.57;;;5.00;;
12348;SDS011;5974;42.710;27.258;2022-08-18T02:04:48;6.03;;;5.50;;
12348;SDS011;5974;42.710;27.258;2022-08-18T02:07:15;5.60;;;5.20;;
12348;SDS011;5974;42.710;27.258;2022-08-18T02:09:42;6.03;;;5.43;;
12348;SDS011;5974;42.710;27.258;2022-08-18T02:12:09;5.70;;;5.17;;
12348;SDS011;5974;42.710;27.258;2022-08-18T02:14:37;5.57;;;5.10;;
12348;SDS011;5974;42.710;27.258;2022-08-18T02:17:04;7.53;;;5.70;;
12348;SDS011;5974;42.710;27.258;2022-08-18T02:19:32;6.07;;;5.57;;
12348;SDS011;5974;42.710;27.258;2022-08-18T02:21:59;6.53;;;5.47;;
12348;SDS011;5974;42.710;27.258;2022-08-18T02:24:25;7.03;;;5.60;;
12348;SDS011;5974;42.710;27.258;2022-08-18T02:26:52;5.90;;;5.40;;
12348;SDS011;5974;42.710;27.258;2022-08-18T02:29:18;6.17;;;5.67;;
12348;SDS011;5974;42.710;27.258;2022-08-18T02:31:46;5.27;;;4.77;;
12348;SDS011;5974;42.710;27.258;2022-08-18T02:34:13;5.50;;;5.10;;
12348;SDS011;5974;42.710;27.258;2022-08-18T02:36:40;4.70;;;4.37;;
12348;SDS011;5974;42.710;27.258;2022-08-18T02:39:07;5.30;;;4.53;;
12348;SDS011;5974;42.710;27.258;2022-08-18T02:41:33;5.37;;;4.60;;
12348;SDS011;5974;42.710;27.258;2022-08-18T02:44:01;6.13;;;4.80;;
12348;SDS011;5974;42.710;27.258;2022-08-18T02:46:29;5.90;;;4.90;;
12348;SDS011;5974;42.710;27.258;2022-08-18T02:48:57;4.83;;;4.43;;
12348;SDS011;5974;42.710;27.258;2022-08-18T02:51:24;9.90;;;4.70;;
12348;SDS011;5974;42.710;27.258;2022-08-18T02:53:51;6.03;;;4.80;;
12348;SDS011;5974;42.710;27.258;2022-08-18T02:56:19;8.20;;;4.63;;
12348;SDS011;5974;42.710;27.258;2022-08-18T02:58:48;5.47;;;4.97;;
12348;SDS011;5974;42.710;27.258;2022-08-18T03:01:17;6.17;;;4.57;;
12348;SDS011;5974;42.710;27.258;2022-08-18T03:03:44;5.43;;;5.03;;
12348;SDS011;5974;42.710;27.258;2022-08-18T03:06:12;6.60;;;4.77;;
12348;SDS011;5974;42.710;27.258;2022-08-18T03:08:38;6.80;;;5.03;;
12348;SDS011;5974;42.710;27.258;2022-08-18T03:11:05;6.10;;;5.37;;
12348;SDS011;5974;42.710;27.258;2022-08-18T03:13:31;8.63;;;5.60;;
12348;SDS011;5974;42.710;27.258;2022-08-18T03:15:58;9.07;;;5.50;;
12348;SDS011;5974;42.710;27.258;2022-08-18T03:18:25;8.07;;;5.50;;
12348;SDS011;5974;42.710;27.258;2022-08-18T03:20:51;7.27;;;6.23;;
12348;SDS011;5974;42.710;27.258;2022-08-18T03:23:19;9.27;;;5.90;;
12348;SDS011;5974;42.710;27.258;2022-08-18T03:25:47;7.77;;;5.80;;
12348;SDS011;5974;42.710;27.258;2022-08-18T03:28:14;8.50;;;6.13;;
12348;SDS011;5974;42.710;27.258;2022-08-18T03:30:41;7.57;;;5.87;;
12348;SDS011;5974;42.710;27.258;2022-08-18T03:33:08;11.13;;;6.43;;
12348;SDS011;5974;42.710;27.258;2022-08-18T03:35:35;8.17;;;6.23;;
12348;SDS011;5974;42.710;27.258;2022-08-18T03:38:02;6.80;;;5.90;;
12348;SDS011;5974;42.710;27.258;2022-08-18T03:40:30;7.37;;;5.70;;
12348;SDS011;5974;42.710;27.258;2022-08-18T03:42:57;7.57;;;5.60;;
12348;SDS011;5974;42.710;27.258;2022-08-18T03:45:23;12.83;;;5.73;;
12348;SDS011;5974;42.710;27.258;2022-08-18T03:47:52;9.47;;;6.60;;
12348;SDS011;5974;42.710;27.258;2022-08-18T03:50:19;10.83;;;6.87;;
12348;SDS011;5974;42.710;27.258;2022-08-18T03:52:49;9.90;;;6.20;;
12348;SDS011;5974;42.710;27.258;2022-08-18T03:55:16;8.73;;;6.40;;
12348;SDS011;5974;42.710;27.258;2022-08-18T03:57:45;12.87;;;6.20;;
12348;SDS011;5974;42.710;27.258;2022-08-18T04:00:11;14.33;;;6.80;;
12348;SDS011;5974;42.710;27.258;2022-08-18T04:02:38;8.20;;;6.40;;
12348;SDS011;5974;42.710;27.258;2022-08-18T04:05:05;9.53;;;5.93;;
12348;SDS011;5974;42.710;27.258;2022-08-18T04:07:34;14.83;;;6.27;;
12348;SDS011;5974;42.710;27.258;2022-08-18T04:10:00;7.90;;;5.80;;
12348;SDS011;5974;42.710;27.258;2022-08-18T04:12:27;11.00;;;6.00;;
12348;SDS011;5974;42.710;27.258;2022-08-18T04:14:55;6.60;;;5.80;;
12348;SDS011;5974;42.710;27.258;2022-08-18T04:17:22;9.27;;;6.20;;
12348;SDS011;5974;42.710;27.258;2022-08-18T04:19:49;9.07;;;5.83;;
12348;SDS011;5974;42.710;27.258;2022-08-18T04:22:16;8.07;;;5.83;;
12348;SDS011;5974;42.710;27.258;2022-08-18T04:24:42;10.80;;;6.70;;
12348;SDS011;5974;42.710;27.258;2022-08-18T04:27:09;8.97;;;5.60;;
12348;SDS011;5974;42.710;27.258;2022-08-18T04:29:36;7.80;;;5.60;;
12348;SDS011;5974;42.710;27.258;2022-08-18T04:32:04;9.83;;;5.80;;
12348;SDS011;5974;42.710;27.258;2022-08-18T04:34:31;8.17;;;5.97;;
12348;SDS011;5974;42.710;27.258;2022-08-18T04:36:58;7.37;;;5.77;;
12348;SDS011;5974;42.710;27.258;2022-08-18T04:39:25;7.33;;;5.47;;
12348;SDS011;5974;42.710;27.258;2022-08-18T04:41:52;7.13;;;5.07;;
12348;SDS011;5974;42.710;27.258;2022-08-18T04:44:18;5.40;;;4.90;;
12348;SDS011;5974;42.710;27.258;2022-08-18T04:46:46;7.23;;;5.17;;
12348;SDS011;5974;42.710;27.258;2022-08-18T04:49:15;7.50;;;4.90;;
12348;SDS011;5974;42.710;27.258;2022-08-18T04:51:43;9.13;;;4.43;;
12348;SDS011;5974;42.710;27.258;2022-08-18T04:54:30;4.90;;;4.50;;
12348;SDS011;5974;42.710;27.258;2022-08-18T04:56:56;5.13;;;4.40;;
12348;SDS011;5974;42.710;27.258;2022-08-18T04:59:23;5.65;;;4.15;;
12348;SDS011;5974;42.710;27.258;2022-08-18T05:01:50;5.03;;;4.10;;
12348;SDS011;5974;42.710;27.258;2022-08-18T05:04:18;6.28;;;4.75;;
12348;SDS011;5974;42.710;27.258;2022-08-18T05:06:45;3.80;;;3.22;;
12348;SDS011;5974;42.710;27.258;2022-08-18T05:09:12;4.90;;;4.25;;
12348;SDS011;5974;42.710;27.258;2022-08-18T05:11:40;5.25;;;4.40;;
12348;SDS011;5974;42.710;27.258;2022-08-18T05:14:08;5.47;;;4.05;;
12348;SDS011;5974;42.710;27.258;2022-08-18T05:16:35;4.43;;;4.10;;
12348;SDS011;5974;42.710;27.258;2022-08-18T05:19:02;4.20;;;3.72;;
12348;SDS011;5974;42.710;27.258;2022-08-18T05:21:30;6.95;;;4.00;;
12348;SDS011;5974;42.710;27.258;2022-08-18T05:23:57;4.40;;;4.10;;
12348;SDS011;5974;42.710;27.258;2022-08-18T05:26:25;4.95;;;3.90;;
12348;SDS011;5974;42.710;27.258;2022-08-18T05:28:52;3.85;;;3.65;;
12348;SDS011;5974;42.710;27.258;2022-08-18T05:31:20;4.88;;;4.03;;
12348;SDS011;5974;42.710;27.258;2022-08-18T05:33:47;4.45;;;4.00;;
12348;SDS011;5974;42.710;27.258;2022-08-18T05:36:18;5.80;;;4.30;;
12348;SDS011;5974;42.710;27.258;2022-08-18T05:38:52;4.90;;;3.65;;
12348;SDS011;5974;42.710;27.258;2022-08-18T05:41:20;10.07;;;4.07;;
12348;SDS011;5974;42.710;27.258;2022-08-18T05:43:48;6.75;;;3.95;;
12348;SDS011;5974;42.710;27.258;2022-08-18T05:46:16;7.63;;;4.20;;
12348;SDS011;5974;42.710;27.258;2022-08-18T05:48:43;6.38;;;4.10;;
12348;SDS011;5974;42.710;27.258;2022-08-18T05:51:11;4.40;;;3.63;;
12348;SDS011;5974;42.710;27.258;2022-08-18T05:53:39;6.80;;;4.20;;
12348;SDS011;5974;42.710;27.258;2022-08-18T05:56:26;5.80;;;3.95;;
12348;SDS011;5974;42.710;27.258;2022-08-18T05:59:16;3.90;;;3.67;;
12348;SDS011;5974;42.710;27.258;2022-08-18T06:01:44;4.15;;;3.75;;
12348;SDS011;5974;42.710;27.258;2022-08-18T06:04:17;10.48;;;4.18;;
12348;SDS011;5974;42.710;27.258;2022-08-18T06:06:46;5.15;;;3.92;;
12348;SDS011;5974;42.710;27.258;2022-08-18T06:09:15;5.07;;;3.83;;
12348;SDS011;5974;42.710;27.258;2022-08-18T06:11:44;4.03;;;3.63;;
12348;SDS011;5974;42.710;27.258;2022-08-18T06:14:11;4.30;;;3.70;;
12348;SDS011;5974;42.710;27.258;2022-08-18T06:16:44;5.50;;;3.83;;
12348;SDS011;5974;42.710;27.258;2022-08-18T06:19:19;5.13;;;3.90;;
12348;SDS011;5974;42.710;27.258;2022-08-18T06:21:49;4.20;;;3.80;;
12348;SDS011;5974;42.710;27.258;2022-08-18T06:24:21;4.43;;;4.03;;
12348;SDS011;5974;42.710;27.258;2022-08-18T06:26:55;4.60;;;4.20;;
12348;SDS011;5974;42.710;27.258;2022-08-18T06:29:30;4.32;;;3.75;;
12348;SDS011;5974;42.710;27.258;2022-08-18T06:32:00;4.97;;;4.45;;
12348;SDS011;5974;42.710;27.258;2022-08-18T06:34:31;4.70;;;4.20;;
12348;SDS011;5974;42.710;27.258;2022-08-18T06:37:02;6.50;;;4.45;;
12348;SDS011;5974;42.710;27.258;2022-08-18T06:39:34;4.15;;;3.88;;
12348;SDS011;5974;42.710;27.258;2022-08-18T06:42:02;4.38;;;4.00;;
12348;SDS011;5974;42.710;27.258;2022-08-18T06:44:31;25.48;;;7.10;;
12348;SDS011;5974;42.710;27.258;2022-08-18T06:47:00;12.85;;;5.00;;
12348;SDS011;5974;42.710;27.258;2022-08-18T06:55:00;5.68;;;4.30;;
12348;SDS011;5974;42.710;27.258;2022-08-18T06:57:30;5.72;;;4.68;;
12348;SDS011;5974;42.710;27.258;2022-08-18T06:59:59;5.60;;;4.20;;
12348;SDS011;5974;42.710;27.258;2022-08-18T07:02:33;5.53;;;5.03;;
12348;SDS011;5974;42.710;27.258;2022-08-18T07:05:04;5.85;;;4.40;;
12348;SDS011;5974;42.710;27.258;2022-08-18T07:07:33;12.02;;;4.75;;
12348;SDS011;5974;42.710;27.258;2022-08-18T07:10:00;9.15;;;4.55;;
12348;SDS011;5974;42.710;27.258;2022-08-18T07:12:27;5.60;;;4.22;;
12348;SDS011;5974;42.710;27.258;2022-08-18T07:14:56;5.32;;;4.65;;
12348;SDS011;5974;42.710;27.258;2022-08-18T07:17:25;7.15;;;4.40;;
12348;SDS011;5974;42.710;27.258;2022-08-18T07:19:59;5.72;;;4.80;;
12348;SDS011;5974;42.710;27.258;2022-08-18T07:22:26;8.23;;;4.50;;
12348;SDS011;5974;42.710;27.258;2022-08-18T07:24:53;7.45;;;4.65;;
12348;SDS011;5974;42.710;27.258;2022-08-18T07:27:21;8.13;;;4.75;;
12348;SDS011;5974;42.710;27.258;2022-08-18T07:29:59;10.25;;;4.80;;
12348;SDS011;5974;42.710;27.258;2022-08-18T07:32:27;4.47;;;4.10;;
12348;SDS011;5974;42.710;27.258;2022-08-18T07:34:56;4.85;;;4.22;;
12348;SDS011;5974;42.710;27.258;2022-08-18T07:37:25;5.53;;;4.32;;
12348;SDS011;5974;42.710;27.258;2022-08-18T07:39:55;5.05;;;4.28;;
12348;SDS011;5974;42.710;27.258;2022-08-18T07:42:27;5.80;;;4.30;;
12348;SDS011;5974;42.710;27.258;2022-08-18T07:44:57;5.18;;;4.60;;
12348;SDS011;5974;42.710;27.258;2022-08-18T07:47:29;5.70;;;4.57;;
12348;SDS011;5974;42.710;27.258;2022-08-18T07:49:56;10.37;;;4.90;;
12348;SDS011;5974;42.710;27.258;2022-08-18T07:52:24;6.00;;;4.70;;
12348;SDS011;5974;42.710;27.258;2022-08-18T07:54:55;9.52;;;4.78;;
12348;SDS011;5974;42.710;27.258;2022-08-18T07:57:25;7.72;;;4.47;;
12348;SDS011;5974;42.710;27.258;2022-08-18T07:59:57;6.95;;;4.70;;
12348;SDS011;5974;42.710;27.258;2022-08-18T08:02:34;5.68;;;4.85;;
12348;SDS011;5974;42.710;27.258;2022-08-18T08:05:06;7.30;;;4.70;;
12348;SDS011;5974;42.710;27.258;2022-08-18T08:07:38;11.43;;;4.73;;
12348;SDS011;5974;42.710;27.258;2022-08-18T08:10:12;5.97;;;4.67;;
12348;SDS011;5974;42.710;27.258;2022-08-18T08:12:44;4.93;;;4.53;;
12348;SDS011;5974;42.710;27.258;2022-08-18T08:15:14;5.00;;;4.60;;
12348;SDS011;5974;42.710;27.258;2022-08-18T08:17:46;4.67;;;4.33;;
12348;SDS011;5974;42.710;27.258;2022-08-18T08:20:19;5.50;;;5.00;;
12348;SDS011;5974;42.710;27.258;2022-08-18T08:22:53;6.07;;;4.60;;
12348;SDS011;5974;42.710;27.258;2022-08-18T08:25:24;4.87;;;4.47;;
12348;SDS011;5974;42.710;27.258;2022-08-18T08:27:56;8.93;;;4.50;;
12348;SDS011;5974;42.710;27.258;2022-08-18T08:30:28;5.57;;;5.07;;
12348;SDS011;5974;42.710;27.258;2022-08-18T08:33:01;4.87;;;4.47;;
12348;SDS011;5974;42.710;27.258;2022-08-18T08:35:33;4.90;;;4.40;;
12348;SDS011;5974;42.710;27.258;2022-08-18T08:38:00;4.72;;;4.32;;
12348;SDS011;5974;42.710;27.258;2022-08-18T08:40:31;5.10;;;4.70;;
12348;SDS011;5974;42.710;27.258;2022-08-18T08:43:00;5.22;;;4.80;;
12348;SDS011;5974;42.710;27.258;2022-08-18T08:45:28;5.03;;;4.63;;
12348;SDS011;5974;42.710;27.258;2022-08-18T08:47:57;5.10;;;4.60;;
12348;SDS011;5974;42.710;27.258;2022-08-18T08:50:27;5.97;;;4.70;;
12348;SDS011;5974;42.710;27.258;2022-08-18T08:52:56;6.63;;;4.70;;
12348;SDS011;5974;42.710;27.258;2022-08-18T08:55:25;5.75;;;4.35;;
12348;SDS011;5974;42.710;27.258;2022-08-18T08:57:53;4.90;;;4.50;;
12348;SDS011;5974;42.710;27.258;2022-08-18T09:00:21;4.68;;;4.25;;
12348;SDS011;5974;42.710;27.258;2022-08-18T09:02:58;5.03;;;4.53;;
12348;SDS011;5974;42.710;27.258;2022-08-18T09:05:27;5.00;;;4.60;;
12348;SDS011;5974;42.710;27.258;2022-08-18T09:10:51;4.95;;;4.53;;
12348;SDS011;5974;42.710;27.258;2022-08-18T09:16:09;6.15;;;4.63;;
12348;SDS011;5974;42.710;27.258;2022-08-18T09:18:42;5.75;;;4.65;;
12348;SDS011;5974;42.710;27.258;2022-08-18T09:21:16;6.43;;;4.95;;
12348;SDS011;5974;42.710;27.258;2022-08-18T09:23:44;4.47;;;4.10;;
12348;SDS011;5974;42.710;27.258;2022-08-18T09:26:21;6.25;;;4.55;;
12348;SDS011;5974;42.710;27.258;2022-08-18T09:28:53;4.68;;;4.28;;
12348;SDS011;5974;42.710;27.258;2022-08-18T09:31:23;5.07;;;4.25;;
12348;SDS011;5974;42.710;27.258;2022-08-18T09:34:06;6.15;;;4.55;;
12348;SDS011;5974;42.710;27.258;2022-08-18T09:36:38;4.80;;;4.40;;
12348;SDS011;5974;42.710;27.258;2022-08-18T09:39:10;6.20;;;4.50;;
12348;SDS011;5974;42.710;27.258;2022-08-18T09:41:57;5.32;;;4.82;;
12348;SDS011;5974;42.710;27.258;2022-08-18T09:47:10;4.90;;;4.50;;
12348;SDS011;5974;42.710;27.258;2022-08-18T09:55:08;5.72;;;5.20;;
12348;SDS011;5974;42.710;27.258;2022-08-18T10:00:34;6.22;;;4.60;;
12348;SDS011;5974;42.710;27.258;2022-08-18T10:03:02;5.50;;;5.00;;
12348;SDS011;5974;42.710;27.258;2022-08-18T10:05:32;5.05;;;4.65;;
12348;SDS011;5974;42.710;27.258;2022-08-18T10:10:44;6.35;;;4.90;;
12348;SDS011;5974;42.710;27.258;2022-08-18T10:13:15;8.05;;;5.00;;
12348;SDS011;5974;42.710;27.258;2022-08-18T10:15:47;5.88;;;5.13;;
12348;SDS011;5974;42.710;27.258;2022-08-18T10:18:21;6.07;;;5.13;;
12348;SDS011;5974;42.710;27.258;2022-08-18T10:20:53;9.57;;;5.00;;
12348;SDS011;5974;42.710;27.258;2022-08-18T10:29:07;7.15;;;5.45;;
12348;SDS011;5974;42.710;27.258;2022-08-18T10:34:20;6.13;;;4.80;;
12348;SDS011;5974;42.710;27.258;2022-08-18T10:37:01;6.18;;;5.18;;
12348;SDS011;5974;42.710;27.258;2022-08-18T10:39:30;5.47;;;5.07;;
12348;SDS011;5974;42.710;27.258;2022-08-18T10:42:09;5.47;;;5.00;;
12348;SDS011;5974;42.710;27.258;2022-08-18T10:44:42;6.10;;;5.22;;
12348;SDS011;5974;42.710;27.258;2022-08-18T10:47:18;5.72;;;5.22;;
12348;SDS011;5974;42.710;27.258;2022-08-18T10:49:46;5.50;;;5.00;;
12348;SDS011;5974;42.710;27.258;2022-08-18T10:52:17;8.27;;;5.57;;
12348;SDS011;5974;42.710;27.258;2022-08-18T10:57:29;5.93;;;5.43;;
12348;SDS011;5974;42.710;27.258;2022-08-18T11:00:00;8.27;;;5.28;;
12348;SDS011;5974;42.710;27.258;2022-08-18T11:02:34;7.10;;;5.00;;
12348;SDS011;5974;42.710;27.258;2022-08-18T11:05:06;5.85;;;5.25;;
12348;SDS011;5974;42.710;27.258;2022-08-18T11:07:33;6.72;;;6.07;;
12348;SDS011;5974;42.710;27.258;2022-08-18T11:10:13;5.30;;;4.85;;
12348;SDS011;5974;42.710;27.258;2022-08-18T11:12:47;9.73;;;5.85;;
12348;SDS011;5974;42.710;27.258;2022-08-18T11:15:19;7.88;;;5.10;;
12348;SDS011;5974;42.710;27.258;2022-08-18T11:17:53;8.40;;;5.20;;
12348;SDS011;5974;42.710;27.258;2022-08-18T11:20:22;5.88;;;5.35;;
12348;SDS011;5974;42.710;27.258;2022-08-18T11:22:53;7.95;;;5.50;;
12348;SDS011;5974;42.710;27.258;2022-08-18T11:25:24;10.50;;;5.30;;
12348;SDS011;5974;42.710;27.258;2022-08-18T11:27:51;8.23;;;5.13;;
12348;SDS011;5974;42.710;27.258;2022-08-18T11:30:20;7.88;;;5.18;;
12348;SDS011;5974;42.710;27.258;2022-08-18T11:32:47;8.05;;;5.22;;
12348;SDS011;5974;42.710;27.258;2022-08-18T11:35:15;5.55;;;5.05;;
12348;SDS011;5974;42.710;27.258;2022-08-18T11:37:44;9.15;;;5.35;;
12348;SDS011;5974;42.710;27.258;2022-08-18T11:40:20;10.68;;;5.90;;
12348;SDS011;5974;42.710;27.258;2022-08-18T11:42:49;7.45;;;5.57;;
12348;SDS011;5974;42.710;27.258;2022-08-18T11:45:21;6.25;;;5.65;;
12348;SDS011;5974;42.710;27.258;2022-08-18T11:50:33;5.72;;;5.22;;
12348;SDS011;5974;42.710;27.258;2022-08-18T11:53:12;7.10;;;5.70;;
12348;SDS011;5974;42.710;27.258;2022-08-18T11:55:39;7.05;;;5.57;;
12348;SDS011;5974;42.710;27.258;2022-08-18T11:58:05;5.90;;;5.30;;
12348;SDS011;5974;42.710;27.258;2022-08-18T12:00:38;5.63;;;5.10;;
12348;SDS011;5974;42.710;27.258;2022-08-18T12:03:07;5.78;;;5.28;;
12348;SDS011;5974;42.710;27.258;2022-08-18T12:05:44;6.70;;;5.60;;
12348;SDS011;5974;42.710;27.258;2022-08-18T12:08:19;6.65;;;5.35;;
12348;SDS011;5974;42.710;27.258;2022-08-18T12:10:47;9.10;;;5.57;;
12348;SDS011;5974;42.710;27.258;2022-08-18T12:13:20;5.82;;;5.25;;
12348;SDS011;5974;42.710;27.258;2022-08-18T12:16:05;7.30;;;5.63;;
12348;SDS011;5974;42.710;27.258;2022-08-18T12:18:32;6.47;;;5.28;;
12348;SDS011;5974;42.710;27.258;2022-08-18T12:20:59;5.93;;;5.32;;
12348;SDS011;5974;42.710;27.258;2022-08-18T12:23:26;7.72;;;5.40;;
12348;SDS011;5974;42.710;27.258;2022-08-18T12:25:53;5.70;;;5.20;;
12348;SDS011;5974;42.710;27.258;2022-08-18T12:28:19;6.20;;;5.60;;
12348;SDS011;5974;42.710;27.258;2022-08-18T12:30:46;7.03;;;5.05;;
12348;SDS011;5974;42.710;27.258;2022-08-18T12:33:14;7.35;;;5.30;;
12348;SDS011;5974;42.710;27.258;2022-08-18T12:35:41;6.78;;;5.10;;
12348;SDS011;5974;42.710;27.258;2022-08-18T12:38:08;5.85;;;5.35;;
12348;SDS011;5974;42.710;27.258;2022-08-18T12:40:35;5.82;;;5.28;;
12348;SDS011;5974;42.710;27.258;2022-08-18T12:43:02;5.25;;;4.72;;
12348;SDS011;5974;42.710;27.258;2022-08-18T12:45:29;5.43;;;5.03;;
12348;SDS011;5974;42.710;27.258;2022-08-18T12:47:56;5.55;;;4.85;;
12348;SDS011;5974;42.710;27.258;2022-08-18T12:50:25;7.45;;;5.50;;
12348;SDS011;5974;42.710;27.258;2022-08-18T12:52:51;9.85;;;5.53;;
12348;SDS011;5974;42.710;27.258;2022-08-18T12:55:18;5.55;;;4.97;;
12348;SDS011;5974;42.710;27.258;2022-08-18T12:57:44;6.20;;;5.30;;
12348;SDS011;5974;42.710;27.258;2022-08-18T13:00:11;6.23;;;5.60;;
12348;SDS011;5974;42.710;27.258;2022-08-18T13:02:38;8.90;;;5.13;;
12348;SDS011;5974;42.710;27.258;2022-08-18T13:05:05;7.68;;;5.55;;
12348;SDS011;5974;42.710;27.258;2022-08-18T13:07:33;5.93;;;5.45;;
12348;SDS011;5974;42.710;27.258;2022-08-18T13:10:00;7.17;;;5.50;;
12348;SDS011;5974;42.710;27.258;2022-08-18T13:12:27;9.37;;;6.23;;
12348;SDS011;5974;42.710;27.258;2022-08-18T13:14:53;9.17;;;5.87;;
12348;SDS011;5974;42.710;27.258;2022-08-18T13:17:20;6.40;;;5.37;;
12348;SDS011;5974;42.710;27.258;2022-08-18T13:19:47;9.93;;;6.18;;
12348;SDS011;5974;42.710;27.258;2022-08-18T13:22:14;8.52;;;5.70;;
12348;SDS011;5974;42.710;27.258;2022-08-18T13:24:41;9.35;;;5.72;;
12348;SDS011;5974;42.710;27.258;2022-08-18T13:27:08;7.80;;;6.03;;
12348;SDS011;5974;42.710;27.258;2022-08-18T13:29:35;7.25;;;5.63;;
12348;SDS011;5974;42.710;27.258;2022-08-18T13:32:02;7.80;;;5.68;;
12348;SDS011;5974;42.710;27.258;2022-08-18T13:34:33;6.10;;;5.55;;
12348;SDS011;5974;42.710;27.258;2022-08-18T13:37:00;8.13;;;5.40;;
12348;SDS011;5974;42.710;27.258;2022-08-18T13:39:26;6.40;;;5.80;;
12348;SDS011;5974;42.710;27.258;2022-08-18T13:41:55;6.97;;;6.30;;
12348;SDS011;5974;42.710;27.258;2022-08-18T13:44:21;7.63;;;6.00;;
12348;SDS011;5974;42.710;27.258;2022-08-18T13:46:48;7.27;;;5.57;;
12348;SDS011;5974;42.710;27.258;2022-08-18T13:49:16;6.40;;;5.80;;
12348;SDS011;5974;42.710;27.258;2022-08-18T13:51:43;6.50;;;5.50;;
12348;SDS011;5974;42.710;27.258;2022-08-18T13:54:11;7.40;;;5.80;;
12348;SDS011;5974;42.710;27.258;2022-08-18T13:56:40;7.73;;;5.97;;
12348;SDS011;5974;42.710;27.258;2022-08-18T13:59:09;6.03;;;5.27;;
12348;SDS011;5974;42.710;27.258;2022-08-18T14:01:37;6.37;;;5.77;;
12348;SDS011;5974;42.710;27.258;2022-08-18T14:04:04;8.17;;;5.93;;
12348;SDS011;5974;42.710;27.258;2022-08-18T14:06:31;6.67;;;5.80;;
12348;SDS011;5974;42.710;27.258;2022-08-18T14:08:58;7.50;;;5.35;;
12348;SDS011;5974;42.710;27.258;2022-08-18T14:11:26;5.55;;;5.10;;
12348;SDS011;5974;42.710;27.258;2022-08-18T14:13:53;6.07;;;5.50;;
12348;SDS011;5974;42.710;27.258;2022-08-18T14:16:21;6.57;;;5.67;;
12348;SDS011;5974;42.710;27.258;2022-08-18T14:18:48;6.53;;;5.93;;
12348;SDS011;5974;42.710;27.258;2022-08-18T14:21:29;6.80;;;6.30;;
12348;SDS011;5974;42.710;27.258;2022-08-18T14:24:12;7.37;;;5.90;;
12348;SDS011;5974;42.710;27.258;2022-08-18T14:27:05;6.97;;;6.20;;
12348;SDS011;5974;42.710;27.258;2022-08-18T14:29:31;6.47;;;5.87;;
12348;SDS011;5974;42.710;27.258;2022-08-18T14:31:59;6.43;;;5.83;;
12348;SDS011;5974;42.710;27.258;2022-08-18T14:34:26;6.90;;;6.00;;
12348;SDS011;5974;42.710;27.258;2022-08-18T14:36:52;6.30;;;5.73;;
12348;SDS011;5974;42.710;27.258;2022-08-18T14:39:19;6.20;;;5.60;;
12348;SDS011;5974;42.710;27.258;2022-08-18T14:41:46;6.60;;;6.00;;
12348;SDS011;5974;42.710;27.258;2022-08-18T14:44:12;7.43;;;6.20;;
12348;SDS011;5974;42.710;27.258;2022-08-18T14:46:39;6.43;;;5.93;;
12348;SDS011;5974;42.710;27.258;2022-08-18T14:49:12;7.10;;;6.40;;
12348;SDS011;5974;42.710;27.258;2022-08-18T14:51:39;6.80;;;6.20;;
12348;SDS011;5974;42.710;27.258;2022-08-18T14:54:07;6.87;;;6.07;;
12348;SDS011;5974;42.710;27.258;2022-08-18T14:56:33;6.77;;;6.17;;
12348;SDS011;5974;42.710;27.258;2022-08-18T14:59:00;6.73;;;6.03;;
12348;SDS011;5974;42.710;27.258;2022-08-18T15:01:29;6.93;;;6.00;;
12348;SDS011;5974;42.710;27.258;2022-08-18T15:03:56;8.47;;;6.60;;
12348;SDS011;5974;42.710;27.258;2022-08-18T15:06:24;7.03;;;6.40;;
12348;SDS011;5974;42.710;27.258;2022-08-18T15:08:51;7.87;;;6.90;;
12348;SDS011;5974;42.710;27.258;2022-08-18T15:11:17;7.73;;;6.47;;
12348;SDS011;5974;42.710;27.258;2022-08-18T15:13:44;6.63;;;6.00;;
12348;SDS011;5974;42.710;27.258;2022-08-18T15:16:11;7.53;;;6.77;;
12348;SDS011;5974;42.710;27.258;2022-08-18T15:18:38;7.20;;;6.30;;
12348;SDS011;5974;42.710;27.258;2022-08-18T15:21:05;7.10;;;6.40;;
12348;SDS011;5974;42.710;27.258;2022-08-18T15:24:02;7.67;;;6.97;;
12348;SDS011;5974;42.710;27.258;2022-08-18T15:26:46;9.00;;;6.47;;
12348;SDS011;5974;42.710;27.258;2022-08-18T15:29:13;9.10;;;6.40;;
12348;SDS011;5974;42.710;27.258;2022-08-18T15:31:40;7.60;;;6.80;;
12348;SDS011;5974;42.710;27.258;2022-08-18T15:34:06;7.33;;;6.73;;
12348;SDS011;5974;42.710;27.258;2022-08-18T15:36:33;7.20;;;6.10;;
12348;SDS011;5974;42.710;27.258;2022-08-18T15:39:02;8.87;;;6.63;;